Time;durP1;ratioP1;P1;durP2;ratioP2;P2;SDS_P1;SDS_P2;PMS_P1;PMS_P2;Temp;Humidity;BMP_temperature;BMP_pressure;BME280_temperature;BME280_humidity;BME280_pressure;Samples;Min_cycle;Max_cycle;Signal;HPM_P1;HPM_P2
2023/04/08 00:01:04;;;;;;;4.00;3.80;;;;;;;;;;6367546;28;20296;-76
2023/04/08 00:04:13;;;;;;;4.03;3.83;;;;;;;;;;6363082;28;20529;-77
2023/04/08 00:07:20;;;;;;;3.40;3.30;;;;;;;;;;6362699;28;20480;-77
2023/04/08 00:10:25;;;;;;;3.30;3.20;;;;;;;;;;6349266;28;20289;-77
2023/04/08 00:13:30;;;;;;;3.20;3.03;;;;;;;;;;6357845;28;20306;-77
2023/04/08 00:16:35;;;;;;;2.97;2.93;;;;;;;;;;6362497;28;20296;-77
2023/04/08 00:19:40;;;;;;;2.70;2.50;;;;;;;;;;6362520;28;20603;-77
2023/04/08 00:22:47;;;;;;;2.43;2.43;;;;;;;;;;6362529;28;20285;-77
2023/04/08 00:25:52;;;;;;;2.40;2.40;;;;;;;;;;6362493;28;20312;-77
2023/04/08 00:28:57;;;;;;;2.20;2.10;;;;;;;;;;6362141;28;20600;-78
2023/04/08 00:32:02;;;;;;;2.20;2.20;;;;;;;;;;6362353;28;20288;-77
2023/04/08 00:35:08;;;;;;;2.00;2.00;;;;;;;;;;6362457;28;20423;-77
2023/04/08 00:38:14;;;;;;;1.87;1.87;;;;;;;;;;6344039;28;20576;-77
2023/04/08 00:41:20;;;;;;;2.00;1.90;;;;;;;;;;6361821;28;20292;-77
2023/04/08 00:44:25;;;;;;;2.43;2.30;;;;;;;;;;6362302;28;20295;-77
2023/04/08 00:47:30;;;;;;;2.10;2.10;;;;;;;;;;6361499;28;20296;-77
2023/04/08 00:50:35;;;;;;;2.00;1.70;;;;;;;;;;6360446;28;20287;-77
2023/04/08 00:53:42;;;;;;;1.70;1.70;;;;;;;;;;6342959;28;20292;-77
2023/04/08 00:56:47;;;;;;;2.00;2.00;;;;;;;;;;6343000;28;20307;-77
2023/04/08 00:59:52;;;;;;;1.90;1.90;;;;;;;;;;6361789;28;20297;-77
2023/04/08 01:03:02;;;;;;;3.60;2.10;;;;;;;;;;6342299;28;20459;-77
2023/04/08 01:06:13;;;;;;;1.90;1.90;;;;;;;;;;6361954;28;20289;-77
2023/04/08 01:09:23;;;;;;;1.93;1.80;;;;;;;;;;6338304;28;20302;-77
2023/04/08 01:12:30;;;;;;;1.87;1.87;;;;;;;;;;6347724;28;20293;-77
2023/04/08 01:15:40;;;;;;;2.03;2.03;;;;;;;;;;6361374;28;20356;-77
2023/04/08 01:18:46;;;;;;;2.23;2.20;;;;;;;;;;6360929;28;20300;-77
2023/04/08 01:21:51;;;;;;;1.87;1.87;;;;;;;;;;6342200;28;20292;-77
2023/04/08 01:25:03;;;;;;;2.00;2.00;;;;;;;;;;6342506;28;20288;-77
2023/04/08 01:28:11;;;;;;;2.30;2.30;;;;;;;;;;6360471;28;20301;-77
2023/04/08 01:31:17;;;;;;;2.10;2.10;;;;;;;;;;6360834;28;20328;-77
2023/04/08 01:34:23;;;;;;;2.40;2.30;;;;;;;;;;6341985;28;20585;-77
2023/04/08 01:37:29;;;;;;;2.50;2.40;;;;;;;;;;6360504;28;20372;-77
2023/04/08 01:40:36;;;;;;;2.57;2.33;;;;;;;;;;6342796;28;20587;-76
2023/04/08 01:43:43;;;;;;;2.97;2.77;;;;;;;;;;6360034;28;20292;-77
2023/04/08 01:46:49;;;;;;;2.57;2.43;;;;;;;;;;6342061;28;20378;-77
2023/04/08 01:49:55;;;;;;;2.60;2.50;;;;;;;;;;6360871;28;20312;-77
2023/04/08 01:53:01;;;;;;;2.40;2.20;;;;;;;;;;6341700;28;20464;-77
2023/04/08 01:56:09;;;;;;;1.90;1.90;;;;;;;;;;6360693;28;20291;-77
2023/04/08 01:59:21;;;;;;;2.23;2.23;;;;;;;;;;6341844;28;20315;-77
2023/04/08 02:02:27;;;;;;;2.13;2.03;;;;;;;;;;6341865;28;20437;-77
2023/04/08 02:05:33;;;;;;;1.80;1.80;;;;;;;;;;6340952;28;20356;-78
2023/04/08 02:08:39;;;;;;;2.07;1.97;;;;;;;;;;6358430;28;20296;-78
2023/04/08 02:11:44;;;;;;;2.10;2.00;;;;;;;;;;6340554;28;20587;-77
2023/04/08 02:14:52;;;;;;;1.80;1.80;;;;;;;;;;6340983;28;20356;-78
2023/04/08 02:18:06;;;;;;;1.77;1.67;;;;;;;;;;6341379;28;20287;-77
2023/04/08 02:21:14;;;;;;;2.10;2.00;;;;;;;;;;6359771;28;20568;-78
2023/04/08 02:24:20;;;;;;;1.83;1.80;;;;;;;;;;6359547;28;20294;-77
2023/04/08 02:27:25;;;;;;;1.87;1.80;;;;;;;;;;6359479;28;20290;-77
2023/04/08 02:30:32;;;;;;;1.90;1.90;;;;;;;;;;6360123;28;20304;-77
2023/04/08 02:33:38;;;;;;;2.10;2.00;;;;;;;;;;6359325;28;20308;-77
2023/04/08 02:36:44;;;;;;;1.60;1.60;;;;;;;;;;6359232;28;20290;-78
2023/04/08 02:39:51;;;;;;;1.73;1.73;;;;;;;;;;6341090;28;20572;-77
2023/04/08 02:42:56;;;;;;;1.53;1.53;;;;;;;;;;6359054;28;20387;-78
2023/04/08 02:46:04;;;;;;;1.60;1.60;;;;;;;;;;6359281;28;20304;-77
2023/04/08 02:49:11;;;;;;;1.60;1.60;;;;;;;;;;6357959;28;20289;-77
2023/04/08 02:52:16;;;;;;;1.90;1.80;;;;;;;;;;6358931;28;20431;-77
2023/04/08 02:55:22;;;;;;;1.67;1.67;;;;;;;;;;6358993;28;20466;-77
2023/04/08 02:58:28;;;;;;;1.70;1.70;;;;;;;;;;6359169;28;20293;-77
2023/04/08 03:01:34;;;;;;;1.67;1.67;;;;;;;;;;6352826;28;20285;-77
2023/04/08 03:04:40;;;;;;;1.70;1.70;;;;;;;;;;6340769;28;20319;-77
2023/04/08 03:07:45;;;;;;;1.47;1.47;;;;;;;;;;6334014;28;20619;-77
2023/04/08 03:10:50;;;;;;;1.73;1.57;;;;;;;;;;6348668;28;20297;-78
2023/04/08 03:13:55;;;;;;;1.40;1.40;;;;;;;;;;6334351;28;20296;-77
2023/04/08 03:17:01;;;;;;;1.50;1.50;;;;;;;;;;6333614;28;20300;-78
2023/04/08 03:20:08;;;;;;;1.60;1.50;;;;;;;;;;6355171;28;20285;-77
2023/04/08 03:23:13;;;;;;;1.30;1.30;;;;;;;;;;6363227;28;20296;-78
2023/04/08 03:26:18;;;;;;;1.50;1.50;;;;;;;;;;6361116;28;20307;-78
2023/04/08 03:29:23;;;;;;;1.80;1.70;;;;;;;;;;6364422;28;20288;-77
2023/04/08 03:32:30;;;;;;;1.63;1.63;;;;;;;;;;6363521;28;20320;-77
2023/04/08 03:35:36;;;;;;;1.73;1.73;;;;;;;;;;6355772;28;20274;-77
2023/04/08 03:38:41;;;;;;;1.53;1.53;;;;;;;;;;6338432;28;20441;-78
2023/04/08 03:41:46;;;;;;;1.90;1.90;;;;;;;;;;6337910;28;20290;-78
2023/04/08 03:44:51;;;;;;;1.43;1.43;;;;;;;;;;6338637;28;20542;-78
2023/04/08 03:47:58;;;;;;;1.97;1.87;;;;;;;;;;6337958;28;20305;-77
2023/04/08 03:51:03;;;;;;;1.77;1.77;;;;;;;;;;6338642;28;20297;-78
2023/04/08 03:54:08;;;;;;;4.10;2.00;;;;;;;;;;6337595;28;20300;-77
2023/04/08 03:57:13;;;;;;;1.80;1.80;;;;;;;;;;6337552;28;20294;-78
2023/04/08 04:00:18;;;;;;;1.50;1.50;;;;;;;;;;6338114;28;20558;-78
2023/04/08 04:03:25;;;;;;;1.70;1.70;;;;;;;;;;6341018;28;20460;-77
2023/04/08 04:06:30;;;;;;;1.70;1.70;;;;;;;;;;6362603;28;20297;-76
2023/04/08 04:09:35;;;;;;;1.60;1.60;;;;;;;;;;6363099;28;20536;-77
2023/04/08 04:12:41;;;;;;;1.40;1.40;;;;;;;;;;6344368;28;20345;-77
2023/04/08 04:15:46;;;;;;;1.70;1.70;;;;;;;;;;6362481;28;20293;-77
2023/04/08 04:18:53;;;;;;;1.60;1.60;;;;;;;;;;6362242;28;20301;-76
2023/04/08 04:21:58;;;;;;;2.20;2.10;;;;;;;;;;6362390;28;20285;-75
2023/04/08 04:25:03;;;;;;;1.70;1.70;;;;;;;;;;6344488;28;20304;-76
2023/04/08 04:28:09;;;;;;;1.73;1.63;;;;;;;;;;6362444;28;20359;-76
2023/04/08 04:31:20;;;;;;;1.57;1.50;;;;;;;;;;6363951;28;20289;-77
2023/04/08 04:34:27;;;;;;;1.70;1.70;;;;;;;;;;6363093;28;20372;-77
2023/04/08 04:37:32;;;;;;;1.70;1.70;;;;;;;;;;6362581;28;20291;-76
2023/04/08 04:40:37;;;;;;;1.73;1.73;;;;;;;;;;6363707;28;20294;-77
2023/04/08 04:43:42;;;;;;;1.70;1.70;;;;;;;;;;6362294;28;20302;-76
2023/04/08 04:46:47;;;;;;;1.60;1.60;;;;;;;;;;6362097;28;20296;-76
2023/04/08 04:49:54;;;;;;;1.40;1.40;;;;;;;;;;6362444;28;20292;-76
2023/04/08 04:52:59;;;;;;;1.47;1.47;;;;;;;;;;6361792;28;20320;-78
2023/04/08 04:56:05;;;;;;;1.90;1.90;;;;;;;;;;6362278;28;20319;-77
2023/04/08 04:59:10;;;;;;;2.00;1.90;;;;;;;;;;6361179;28;20302;-77
2023/04/08 05:02:15;;;;;;;1.73;1.63;;;;;;;;;;6361295;28;20297;-77
2023/04/08 05:05:22;;;;;;;1.73;1.63;;;;;;;;;;6361563;28;20293;-77
2023/04/08 05:08:27;;;;;;;1.90;1.80;;;;;;;;;;6361552;28;20288;-77
2023/04/08 05:11:32;;;;;;;1.80;1.80;;;;;;;;;;6360965;28;20283;-76
2023/04/08 05:14:37;;;;;;;1.40;1.40;;;;;;;;;;6360797;28;20296;-77
2023/04/08 05:17:42;;;;;;;1.90;1.80;;;;;;;;;;6360806;28;20304;-77
2023/04/08 05:20:50;;;;;;;1.63;1.60;;;;;;;;;;6361310;28;20262;-77
2023/04/08 05:23:55;;;;;;;1.80;1.80;;;;;;;;;;6360837;28;20324;-77
2023/04/08 05:27:00;;;;;;;1.37;1.37;;;;;;;;;;6360805;28;20290;-77
2023/04/08 05:30:07;;;;;;;1.83;1.83;;;;;;;;;;6360965;28;20589;-77
2023/04/08 05:33:12;;;;;;;1.80;1.80;;;;;;;;;;6360377;28;20300;-77
2023/04/08 05:36:19;;;;;;;1.67;1.67;;;;;;;;;;6360747;28;20581;-78
2023/04/08 05:39:24;;;;;;;1.40;1.40;;;;;;;;;;6360906;28;20563;-77
2023/04/08 05:42:29;;;;;;;1.80;1.70;;;;;;;;;;6360760;28;20296;-77
2023/04/08 05:45:34;;;;;;;1.50;1.50;;;;;;;;;;6361119;28;20297;-78
2023/04/08 05:48:39;;;;;;;2.10;1.60;;;;;;;;;;6360343;28;20296;-77
2023/04/08 05:51:46;;;;;;;1.77;1.67;;;;;;;;;;6360168;28;20305;-77
2023/04/08 05:54:51;;;;;;;1.57;1.57;;;;;;;;;;6342931;28;20286;-77
2023/04/08 05:57:56;;;;;;;1.60;1.60;;;;;;;;;;6360433;28;20316;-77
2023/04/08 06:01:02;;;;;;;1.40;1.40;;;;;;;;;;6360458;28;20327;-78
2023/04/08 06:04:07;;;;;;;2.00;1.40;;;;;;;;;;6359317;28;20322;-77
2023/04/08 06:07:13;;;;;;;1.43;1.43;;;;;;;;;;6359887;28;20305;-77
2023/04/08 06:10:19;;;;;;;1.43;1.43;;;;;;;;;;6360020;28;20290;-78
2023/04/08 06:13:24;;;;;;;1.70;1.70;;;;;;;;;;6358850;28;20297;-77
2023/04/08 06:16:29;;;;;;;2.10;1.60;;;;;;;;;;6359903;28;20316;-77
2023/04/08 06:19:35;;;;;;;1.33;1.33;;;;;;;;;;6360054;28;20364;-77
2023/04/08 06:22:42;;;;;;;1.40;1.40;;;;;;;;;;6359544;28;20324;-77
2023/04/08 06:25:47;;;;;;;1.70;1.60;;;;;;;;;;6360075;28;20320;-76
2023/04/08 06:28:52;;;;;;;1.80;1.80;;;;;;;;;;6359252;28;20296;-78
2023/04/08 06:31:57;;;;;;;3.23;1.70;;;;;;;;;;6359290;28;20285;-78
2023/04/08 06:35:03;;;;;;;3.10;1.70;;;;;;;;;;6359422;28;20297;-75
2023/04/08 06:38:10;;;;;;;1.70;1.70;;;;;;;;;;6359243;28;20295;-77
2023/04/08 06:41:15;;;;;;;1.70;1.60;;;;;;;;;;6359407;28;20294;-76
2023/04/08 06:44:20;;;;;;;1.63;1.63;;;;;;;;;;6363416;28;20295;-77
2023/04/08 06:47:25;;;;;;;1.50;1.50;;;;;;;;;;6358793;28;20295;-78
2023/04/08 06:50:30;;;;;;;1.50;1.50;;;;;;;;;;6359270;28;20377;-78
2023/04/08 06:53:37;;;;;;;1.50;1.50;;;;;;;;;;6357494;28;20295;-76
2023/04/08 06:56:42;;;;;;;1.50;1.50;;;;;;;;;;6358440;28;20297;-76
2023/04/08 06:59:47;;;;;;;1.47;1.40;;;;;;;;;;6358292;28;20551;-77
2023/04/08 07:02:52;;;;;;;1.40;1.40;;;;;;;;;;6358557;28;20349;-78
2023/04/08 07:05:58;;;;;;;1.43;1.43;;;;;;;;;;6308786;28;20289;-77
2023/04/08 07:09:04;;;;;;;1.50;1.50;;;;;;;;;;6310462;28;20484;-76
2023/04/08 07:12:10;;;;;;;1.50;1.50;;;;;;;;;;6333003;28;20299;-78
2023/04/08 07:15:15;;;;;;;1.57;1.57;;;;;;;;;;6333766;28;20300;-78
2023/04/08 07:18:21;;;;;;;1.40;1.40;;;;;;;;;;6332881;28;20293;-77
2023/04/08 07:21:26;;;;;;;1.73;1.10;;;;;;;;;;6333039;28;20606;-77
2023/04/08 07:24:33;;;;;;;1.10;1.10;;;;;;;;;;6333403;28;20317;-76
2023/04/08 07:27:38;;;;;;;1.20;1.20;;;;;;;;;;6333189;28;20300;-76
2023/04/08 07:30:43;;;;;;;1.40;1.40;;;;;;;;;;6333543;28;20332;-77
2023/04/08 07:33:48;;;;;;;1.20;1.20;;;;;;;;;;6333000;28;20300;-77
2023/04/08 07:36:53;;;;;;;1.13;1.13;;;;;;;;;;6333051;28;20364;-78
2023/04/08 07:40:00;;;;;;;1.20;1.20;;;;;;;;;;6333721;28;20312;-77
2023/04/08 07:43:05;;;;;;;1.40;1.40;;;;;;;;;;6333126;28;20293;-77
2023/04/08 07:46:13;;;;;;;2.50;1.10;;;;;;;;;;6333786;28;20321;-77
2023/04/08 07:49:18;;;;;;;1.33;1.30;;;;;;;;;;6332308;28;20317;-77
2023/04/08 07:52:23;;;;;;;1.50;1.50;;;;;;;;;;6315186;28;20295;-76
2023/04/08 07:55:33;;;;;;;1.43;1.30;;;;;;;;;;6333253;28;20297;-78
2023/04/08 07:58:39;;;;;;;1.40;1.40;;;;;;;;;;6333053;28;20297;-77
2023/04/08 08:01:45;;;;;;;1.50;1.40;;;;;;;;;;6332714;28;20284;-77
2023/04/08 08:04:51;;;;;;;1.30;1.30;;;;;;;;;;6349022;28;20300;-77
2023/04/08 08:07:56;;;;;;;1.40;1.40;;;;;;;;;;6357855;28;20306;-76
2023/04/08 08:11:02;;;;;;;1.77;1.70;;;;;;;;;;6358397;28;20296;-77
2023/04/08 08:14:07;;;;;;;1.33;1.33;;;;;;;;;;6342220;28;20311;-78
2023/04/08 08:17:13;;;;;;;1.47;1.40;;;;;;;;;;6347298;28;20549;-77
2023/04/08 08:20:18;;;;;;;1.30;1.30;;;;;;;;;;6356429;28;20289;-76
2023/04/08 08:23:24;;;;;;;1.10;1.10;;;;;;;;;;6342636;28;20471;-76
2023/04/08 08:26:31;;;;;;;1.10;1.10;;;;;;;;;;6362440;28;20423;-76
2023/04/08 08:29:37;;;;;;;1.10;1.10;;;;;;;;;;6361034;28;20469;-76
2023/04/08 08:32:42;;;;;;;1.80;1.27;;;;;;;;;;6361645;28;20308;-76
2023/04/08 08:35:47;;;;;;;2.50;2.30;;;;;;;;;;6361381;28;20402;-76
2023/04/08 08:38:53;;;;;;;1.73;1.73;;;;;;;;;;6362397;28;20272;-76
2023/04/08 08:42:00;;;;;;;1.27;1.27;;;;;;;;;;6361686;28;20291;-77
2023/04/08 08:45:07;;;;;;;1.80;1.80;;;;;;;;;;6361817;28;20304;-76
2023/04/08 08:48:12;;;;;;;2.20;2.20;;;;;;;;;;6359587;28;20304;-76
2023/04/08 08:51:17;;;;;;;1.40;1.40;;;;;;;;;;6334453;28;20513;-76
2023/04/08 08:54:23;;;;;;;1.57;1.40;;;;;;;;;;6336728;28;20297;-76
2023/04/08 08:57:30;;;;;;;1.53;1.40;;;;;;;;;;6335880;28;20305;-76
2023/04/08 09:00:36;;;;;;;1.10;1.10;;;;;;;;;;6335363;28;20301;-76
2023/04/08 09:03:41;;;;;;;1.00;1.00;;;;;;;;;;6342023;28;20300;-76
2023/04/08 09:06:48;;;;;;;1.40;1.30;;;;;;;;;;6360833;28;20293;-76
2023/04/08 09:09:54;;;;;;;1.20;1.20;;;;;;;;;;6361307;28;20489;-76
2023/04/08 09:13:01;;;;;;;1.47;1.27;;;;;;;;;;6360479;28;20296;-77
2023/04/08 09:16:08;;;;;;;1.23;1.23;;;;;;;;;;6360373;28;20293;-76
2023/04/08 09:19:16;;;;;;;1.10;1.10;;;;;;;;;;6360524;28;20592;-76
2023/04/08 09:22:21;;;;;;;1.20;1.20;;;;;;;;;;6360599;28;20296;-76
2023/04/08 09:25:27;;;;;;;1.20;1.20;;;;;;;;;;6359716;28;20403;-77
2023/04/08 09:28:33;;;;;;;1.17;1.00;;;;;;;;;;6361049;28;20307;-76
2023/04/08 09:31:40;;;;;;;2.63;1.60;;;;;;;;;;6360196;28;20299;-76
2023/04/08 09:34:46;;;;;;;1.77;1.30;;;;;;;;;;6360930;28;20293;-76
2023/04/08 09:37:51;;;;;;;1.40;1.40;;;;;;;;;;6360409;28;20299;-77
2023/04/08 09:40:56;;;;;;;4.20;1.60;;;;;;;;;;6360234;28;20297;-77
2023/04/08 09:44:04;;;;;;;1.13;1.10;;;;;;;;;;6342526;28;20387;-76
2023/04/08 09:47:20;;;;;;;1.30;1.30;;;;;;;;;;6360085;28;20293;-76
2023/04/08 09:50:28;;;;;;;1.33;1.27;;;;;;;;;;6355545;28;20292;-77
2023/04/08 09:53:37;;;;;;;1.60;1.50;;;;;;;;;;6360672;28;20292;-77
2023/04/08 09:56:51;;;;;;;6.27;2.20;;;;;;;;;;6358652;28;20293;-76
2023/04/08 10:00:08;;;;;;;1.73;1.63;;;;;;;;;;6359728;28;20316;-77
2023/04/08 10:03:28;;;;;;;2.10;2.00;;;;;;;;;;6341027;28;20309;-77
2023/04/08 10:06:34;;;;;;;1.30;1.30;;;;;;;;;;6362359;28;20305;-77
2023/04/08 10:09:41;;;;;;;2.03;1.90;;;;;;;;;;6359860;28;20292;-77
2023/04/08 10:12:47;;;;;;;2.10;2.08;;;;;;;;;;6359619;28;20305;-77
2023/04/08 10:16:24;;;;;;;1.63;1.63;;;;;;;;;;6358844;28;20542;-78
2023/04/08 10:19:40;;;;;;;1.55;1.55;;;;;;;;;;6359854;28;20294;-76
2023/04/08 10:22:48;;;;;;;1.90;1.85;;;;;;;;;;6358909;28;20298;-76
2023/04/08 10:25:54;;;;;;;1.60;1.60;;;;;;;;;;6358382;28;20306;-77
2023/04/08 10:29:45;;;;;;;3.85;1.48;;;;;;;;;;6359175;28;20563;-77
2023/04/08 10:32:51;;;;;;;1.40;1.40;;;;;;;;;;6358123;28;20293;-77
2023/04/08 10:36:03;;;;;;;1.30;1.20;;;;;;;;;;6357866;28;20296;-77
2023/04/08 10:39:08;;;;;;;1.23;1.20;;;;;;;;;;6359407;28;20430;-77
2023/04/08 10:42:13;;;;;;;1.52;1.52;;;;;;;;;;6358722;28;20457;-77
2023/04/08 10:45:18;;;;;;;1.67;1.67;;;;;;;;;;6359533;28;20471;-77
2023/04/08 10:48:27;;;;;;;1.20;1.10;;;;;;;;;;6358660;28;20289;-78
2023/04/08 10:51:33;;;;;;;1.23;1.23;;;;;;;;;;6357747;28;20556;-76
2023/04/08 10:54:39;;;;;;;1.90;1.20;;;;;;;;;;6359322;28;20290;-76
2023/04/08 10:57:44;;;;;;;1.17;1.17;;;;;;;;;;6340306;28;20304;-77
2023/04/08 11:00:50;;;;;;;1.20;1.20;;;;;;;;;;6358711;28;20288;-76
2023/04/08 11:03:56;;;;;;;1.30;1.30;;;;;;;;;;6359110;28;20300;-77
2023/04/08 11:07:07;;;;;;;3.53;3.20;;;;;;;;;;6358241;28;20344;-77
2023/04/08 11:10:12;;;;;;;1.70;1.70;;;;;;;;;;6358943;28;20388;-77
2023/04/08 11:13:17;;;;;;;1.55;1.30;;;;;;;;;;6358742;28;20300;-76
2023/04/08 11:16:23;;;;;;;1.20;1.20;;;;;;;;;;6358385;28;20604;-77
2023/04/08 11:19:29;;;;;;;1.10;1.10;;;;;;;;;;6358792;28;20288;-76
2023/04/08 11:22:34;;;;;;;3.03;2.85;;;;;;;;;;6358613;28;20289;-77
2023/04/08 11:25:43;;;;;;;2.15;2.15;;;;;;;;;;6340513;28;20455;-76
2023/04/08 11:28:50;;;;;;;1.48;1.48;;;;;;;;;;6340631;28;20576;-76
2023/04/08 11:31:56;;;;;;;1.60;1.60;;;;;;;;;;6358090;28;20293;-77
2023/04/08 11:35:02;;;;;;;1.25;1.25;;;;;;;;;;6340332;28;20284;-77
2023/04/08 11:38:09;;;;;;;1.20;1.20;;;;;;;;;;6358277;28;20297;-77
2023/04/08 11:41:15;;;;;;;4.88;1.25;;;;;;;;;;6357989;28;20289;-77
2023/04/08 11:44:20;;;;;;;1.70;1.70;;;;;;;;;;6359038;28;20288;-76
2023/04/08 11:47:32;;;;;;;1.67;1.58;;;;;;;;;;6360901;28;20297;-77
2023/04/08 11:50:41;;;;;;;1.30;1.30;;;;;;;;;;6361787;28;20273;-77
2023/04/08 11:53:47;;;;;;;3.47;1.20;;;;;;;;;;6363195;28;20447;-77
2023/04/08 11:56:53;;;;;;;1.92;1.20;;;;;;;;;;6362794;28;20604;-77
2023/04/08 11:59:58;;;;;;;1.27;1.27;;;;;;;;;;6363146;28;20285;-75
2023/04/08 12:03:03;;;;;;;1.23;1.23;;;;;;;;;;6361928;28;20401;-76
2023/04/08 12:06:10;;;;;;;1.45;1.27;;;;;;;;;;6361913;28;20292;-76
2023/04/08 12:09:15;;;;;;;1.20;1.20;;;;;;;;;;6362940;28;20288;-76
2023/04/08 12:12:21;;;;;;;8.00;1.50;;;;;;;;;;6362269;28;20375;-77
2023/04/08 12:15:26;;;;;;;1.95;1.40;;;;;;;;;;6362575;28;20479;-77
2023/04/08 12:18:31;;;;;;;1.30;1.30;;;;;;;;;;6363023;28;20321;-77
2023/04/08 12:21:38;;;;;;;1.65;1.20;;;;;;;;;;6362259;28;20605;-76
2023/04/08 12:24:43;;;;;;;3.83;1.45;;;;;;;;;;6362999;28;20289;-77
2023/04/08 12:27:48;;;;;;;1.50;1.40;;;;;;;;;;6362334;28;20289;-77
2023/04/08 12:30:53;;;;;;;1.27;1.27;;;;;;;;;;6362154;28;20288;-76
2023/04/08 12:33:58;;;;;;;1.90;1.90;;;;;;;;;;6362569;28;20310;-77
2023/04/08 12:37:05;;;;;;;2.33;2.22;;;;;;;;;;6362124;28;20309;-77
2023/04/08 12:40:12;;;;;;;1.55;1.55;;;;;;;;;;6362458;28;20289;-77
2023/04/08 12:43:17;;;;;;;1.33;1.30;;;;;;;;;;6361924;28;20301;-77
2023/04/08 12:46:22;;;;;;;3.58;3.38;;;;;;;;;;6361070;28;20577;-77
2023/04/08 12:49:28;;;;;;;3.33;2.85;;;;;;;;;;6362699;28;20285;-77
2023/04/08 12:52:35;;;;;;;3.30;3.10;;;;;;;;;;6362001;28;20479;-77
2023/04/08 12:55:40;;;;;;;2.15;2.05;;;;;;;;;;6361441;28;20306;-77
2023/04/08 12:58:48;;;;;;;1.20;1.20;;;;;;;;;;6361158;28;20300;-77
2023/04/08 13:01:54;;;;;;;4.05;3.95;;;;;;;;;;6361348;28;20292;-77
2023/04/08 13:04:59;;;;;;;1.40;1.40;;;;;;;;;;6361947;28;20389;-77
2023/04/08 13:08:06;;;;;;;1.30;1.20;;;;;;;;;;6361565;28;20292;-77
2023/04/08 13:11:12;;;;;;;1.23;1.20;;;;;;;;;;6360918;28;20451;-77
2023/04/08 13:14:17;;;;;;;1.23;1.13;;;;;;;;;;6362466;28;20293;-77
2023/04/08 13:17:22;;;;;;;1.20;1.20;;;;;;;;;;6361494;28;20298;-76
2023/04/08 13:20:28;;;;;;;3.35;3.25;;;;;;;;;;6361444;28;20296;-77
2023/04/08 13:23:35;;;;;;;2.00;1.90;;;;;;;;;;6361010;28;20293;-77
2023/04/08 13:26:40;;;;;;;1.75;1.20;;;;;;;;;;6359879;28;20449;-77
2023/04/08 13:29:45;;;;;;;2.05;1.20;;;;;;;;;;6361363;28;20273;-77
2023/04/08 13:32:50;;;;;;;1.63;1.63;;;;;;;;;;6360614;28;20625;-76
2023/04/08 13:35:56;;;;;;;1.30;1.30;;;;;;;;;;6360353;28;20377;-76
2023/04/08 13:39:02;;;;;;;1.35;1.25;;;;;;;;;;6361017;28;20558;-77
2023/04/08 13:42:08;;;;;;;0.93;0.93;;;;;;;;;;6360677;28;20292;-76
2023/04/08 13:45:13;;;;;;;1.10;1.10;;;;;;;;;;6361010;28;20285;-77
2023/04/08 13:48:18;;;;;;;0.98;0.98;;;;;;;;;;6360305;28;20481;-77
2023/04/08 13:51:23;;;;;;;1.60;1.20;;;;;;;;;;6360394;28;20292;-77
2023/04/08 13:54:30;;;;;;;1.10;1.10;;;;;;;;;;6360922;28;20289;-77
2023/04/08 13:57:35;;;;;;;1.20;1.20;;;;;;;;;;6360053;28;20296;-76
2023/04/08 14:00:40;;;;;;;4.35;2.28;;;;;;;;;;6360049;28;20522;-77
2023/04/08 14:03:45;;;;;;;1.80;1.80;;;;;;;;;;6342043;28;20309;-76
2023/04/08 14:06:52;;;;;;;1.27;1.23;;;;;;;;;;6360084;28;20293;-76
2023/04/08 14:09:58;;;;;;;1.20;1.20;;;;;;;;;;6360688;28;20284;-77
2023/04/08 14:13:03;;;;;;;1.50;1.15;;;;;;;;;;6359895;28;20302;-77
2023/04/08 14:16:09;;;;;;;1.23;1.23;;;;;;;;;;6362293;28;20461;-77
2023/04/08 14:19:17;;;;;;;1.52;1.40;;;;;;;;;;6360462;28;20301;-76
2023/04/08 14:22:22;;;;;;;5.43;1.40;;;;;;;;;;6359645;28;20413;-77
2023/04/08 14:25:28;;;;;;;1.95;1.52;;;;;;;;;;6359610;28;20318;-78
2023/04/08 14:28:35;;;;;;;1.38;1.38;;;;;;;;;;6360328;28;20288;-77
2023/04/08 14:31:40;;;;;;;1.48;1.40;;;;;;;;;;6359551;28;20301;-77
2023/04/08 14:34:45;;;;;;;1.52;1.52;;;;;;;;;;6360252;28;20285;-77
2023/04/08 14:37:51;;;;;;;1.33;1.33;;;;;;;;;;6359282;28;20377;-77
2023/04/08 14:40:58;;;;;;;1.20;1.20;;;;;;;;;;6359596;28;20278;-78
2023/04/08 14:44:04;;;;;;;1.40;1.30;;;;;;;;;;6360080;28;20293;-77
2023/04/08 14:47:11;;;;;;;1.30;1.20;;;;;;;;;;6359412;28;20293;-77
2023/04/08 14:50:16;;;;;;;1.27;1.27;;;;;;;;;;6359703;28;20284;-76
2023/04/08 14:53:22;;;;;;;1.30;1.30;;;;;;;;;;6358886;28;20296;-76
2023/04/08 14:56:28;;;;;;;2.50;1.40;;;;;;;;;;6359348;28;20289;-76
2023/04/08 14:59:33;;;;;;;1.50;1.48;;;;;;;;;;6341398;28;20285;-77
2023/04/08 15:02:38;;;;;;;1.40;1.40;;;;;;;;;;6357475;28;20473;-77
2023/04/08 15:05:44;;;;;;;4.13;1.55;;;;;;;;;;6358746;28;20452;-77
2023/04/08 15:08:49;;;;;;;1.30;1.30;;;;;;;;;;6359324;28;20268;-77
2023/04/08 15:11:57;;;;;;;1.20;1.20;;;;;;;;;;6358325;28;20577;-77
2023/04/08 15:15:02;;;;;;;1.30;1.30;;;;;;;;;;6359014;28;20281;-78
2023/04/08 15:18:11;;;;;;;4.18;1.52;;;;;;;;;;6358922;28;20301;-77
2023/04/08 15:21:16;;;;;;;2.00;1.90;;;;;;;;;;6359749;28;20293;-77
2023/04/08 15:24:21;;;;;;;1.90;1.80;;;;;;;;;;6364618;28;20385;-77
2023/04/08 15:27:28;;;;;;;2.95;1.70;;;;;;;;;;6363713;28;20292;-77
2023/04/08 15:30:34;;;;;;;1.52;1.52;;;;;;;;;;6363513;28;20288;-77
2023/04/08 15:33:41;;;;;;;2.10;2.10;;;;;;;;;;6364152;28;20289;-77
2023/04/08 15:36:46;;;;;;;1.60;1.60;;;;;;;;;;6363543;28;20289;-77
2023/04/08 15:39:52;;;;;;;1.77;1.75;;;;;;;;;;6363653;28;20481;-77
2023/04/08 15:42:59;;;;;;;3.50;2.08;;;;;;;;;;6363074;28;20289;-77
2023/04/08 15:46:04;;;;;;;3.83;2.28;;;;;;;;;;6363331;28;20293;-77
2023/04/08 15:49:09;;;;;;;1.90;1.80;;;;;;;;;;6363411;28;20292;-77
2023/04/08 15:52:15;;;;;;;3.00;2.90;;;;;;;;;;6363451;28;20305;-76
2023/04/08 15:55:20;;;;;;;2.35;2.15;;;;;;;;;;6362410;28;20293;-77
2023/04/08 15:58:27;;;;;;;2.20;2.10;;;;;;;;;;6344876;28;20297;-76
2023/04/08 16:01:33;;;;;;;1.85;1.80;;;;;;;;;;6362630;28;20293;-76
2023/04/08 16:04:38;;;;;;;2.25;1.90;;;;;;;;;;6362995;28;20312;-76
2023/04/08 16:07:43;;;;;;;1.50;1.50;;;;;;;;;;6363281;28;20292;-76
2023/04/08 16:10:48;;;;;;;2.90;2.70;;;;;;;;;;6362566;28;20292;-76
2023/04/08 16:13:55;;;;;;;2.90;1.80;;;;;;;;;;6362913;28;20284;-76
2023/04/08 16:17:01;;;;;;;2.25;2.15;;;;;;;;;;6362483;28;20354;-77
2023/04/08 16:20:07;;;;;;;2.42;2.20;;;;;;;;;;6362772;28;20309;-76
2023/04/08 16:23:14;;;;;;;1.92;1.92;;;;;;;;;;6362211;28;20296;-76
2023/04/08 16:26:20;;;;;;;2.08;1.98;;;;;;;;;;6362462;28;20289;-77
2023/04/08 16:29:27;;;;;;;2.08;2.05;;;;;;;;;;6362464;28;20293;-77
2023/04/08 16:32:32;;;;;;;2.13;2.13;;;;;;;;;;6361599;28;20470;-78
2023/04/08 16:35:38;;;;;;;3.00;2.90;;;;;;;;;;6360996;28;20292;-76
2023/04/08 16:38:43;;;;;;;2.30;2.20;;;;;;;;;;6362727;28;20446;-77
2023/04/08 16:41:48;;;;;;;2.08;2.08;;;;;;;;;;6362093;28;20301;-76
2023/04/08 16:44:58;;;;;;;1.80;1.73;;;;;;;;;;6361768;28;20688;-76
2023/04/08 16:48:03;;;;;;;2.10;2.10;;;;;;;;;;6343852;28;20288;-76
2023/04/08 16:51:09;;;;;;;5.57;1.83;;;;;;;;;;6361639;28;20296;-76
2023/04/08 16:54:14;;;;;;;3.22;1.67;;;;;;;;;;6362336;28;20296;-77
2023/04/08 16:57:20;;;;;;;2.45;1.83;;;;;;;;;;6361760;28;20306;-77
2023/04/08 17:00:26;;;;;;;1.55;1.50;;;;;;;;;;6361654;28;20292;-77
2023/04/08 17:03:31;;;;;;;1.55;1.30;;;;;;;;;;6361410;28;20305;-77
2023/04/08 17:06:37;;;;;;;2.05;1.92;;;;;;;;;;6361736;28;20298;-76
2023/04/08 17:09:42;;;;;;;1.77;1.77;;;;;;;;;;6361827;28;20297;-77
2023/04/08 17:12:47;;;;;;;1.60;1.60;;;;;;;;;;6361244;28;20569;-76
2023/04/08 17:15:53;;;;;;;4.50;1.67;;;;;;;;;;6361036;28;20561;-76
2023/04/08 17:18:58;;;;;;;3.97;1.42;;;;;;;;;;6361404;28;20289;-76
2023/04/08 17:22:04;;;;;;;5.90;3.80;;;;;;;;;;6360499;28;20297;-77
2023/04/08 17:25:10;;;;;;;2.85;2.60;;;;;;;;;;6335090;28;20297;-77
2023/04/08 17:28:18;;;;;;;2.30;2.20;;;;;;;;;;6335025;28;20297;-76
2023/04/08 17:31:25;;;;;;;1.95;1.77;;;;;;;;;;6334934;28;20302;-76
2023/04/08 17:34:31;;;;;;;1.63;1.58;;;;;;;;;;6337087;28;20297;-77
2023/04/08 17:37:37;;;;;;;1.48;1.33;;;;;;;;;;6335655;28;20293;-77
2023/04/08 17:40:41;;;;;;;2.25;1.48;;;;;;;;;;6335103;28;20289;-77
2023/04/08 17:43:47;;;;;;;3.35;1.60;;;;;;;;;;6335787;28;20306;-77
2023/04/08 17:46:54;;;;;;;6.03;1.40;;;;;;;;;;6335201;28;20585;-77
2023/04/08 17:49:59;;;;;;;2.28;1.40;;;;;;;;;;6335398;28;20606;-77
2023/04/08 17:53:04;;;;;;;7.03;1.65;;;;;;;;;;6334637;28;20309;-76
2023/04/08 17:56:10;;;;;;;3.38;1.70;;;;;;;;;;6334215;28;20330;-77
2023/04/08 17:59:15;;;;;;;1.60;1.50;;;;;;;;;;6335149;28;20543;-77
2023/04/08 18:02:22;;;;;;;3.75;1.55;;;;;;;;;;6316088;28;20509;-76
2023/04/08 18:05:29;;;;;;;5.65;1.95;;;;;;;;;;6334656;28;20298;-76
2023/04/08 18:08:34;;;;;;;2.72;1.88;;;;;;;;;;6335531;28;20309;-77
2023/04/08 18:11:39;;;;;;;2.00;1.67;;;;;;;;;;6338302;28;20600;-76
2023/04/08 18:14:44;;;;;;;21.60;2.08;;;;;;;;;;6359769;28;20267;-79
2023/04/08 18:17:51;;;;;;;3.67;1.60;;;;;;;;;;6359178;28;20292;-76
2023/04/08 18:20:57;;;;;;;2.10;1.33;;;;;;;;;;6359194;28;20550;-77
2023/04/08 18:24:02;;;;;;;1.57;1.47;;;;;;;;;;6360531;28;20285;-77
2023/04/08 18:27:08;;;;;;;1.40;1.40;;;;;;;;;;6359720;28;20296;-77
2023/04/08 18:30:14;;;;;;;1.43;1.20;;;;;;;;;;6360044;28;20556;-76
2023/04/08 18:33:20;;;;;;;1.60;1.50;;;;;;;;;;6359558;28;20301;-76
2023/04/08 18:36:26;;;;;;;1.47;1.40;;;;;;;;;;6358926;28;20300;-76